ESST/TYF METAR and TAF weather

Enter ICAO airport designator
Station Type Date Time Source
ESST METAR 2021/05/13 00:20 UTC NOAA

ESST 130020Z AUTO 28004KT 9999 FEW057/// SCT098/// 12/11 Q1007


Station Type Date Time Source
ESST Decoded METAR 2021/05/13 00:20 UTC NOAA

Station name not available
May 12, 2021 - 08:20 PM EDT / 2021.05.13 0020 UTC
Wind: from the W (280 degrees) at 5 MPH (4 KT):0
Visibility: greater than 7 mile(s):0
Sky conditions: partly cloudy
Temperature: 53 F (12 C)
Dew Point: 51 F (11 C)
Relative Humidity: 93%
Pressure (altimeter): 29.74 in. Hg (1007 hPa)
ob: ESST 130020Z AUTO 28004KT 9999 FEW057/// SCT098/// 12/11 Q1007
cycle: 0

Station Type Date Time Source
ESST TAF UTC NOAA

Error!

Example: see airport list